Time;durP1;ratioP1;P1;durP2;ratioP2;P2;SDS_P1;SDS_P2;PMS_P1;PMS_P2;Temp;Humidity;BMP_temperature;BMP_pressure;BME280_temperature;BME280_humidity;BME280_pressure;Samples;Min_cycle;Max_cycle;Signal;HPM_P1;HPM_P2
2023/08/14 01:49:52;;;;;;;8.70;5.30;;;;;;;17.64;100.00;101310.39;106218;1256;61690;-85
2023/08/14 01:52:40;;;;;;;9.40;5.60;;;;;;;17.62;100.00;101310.80;106236;1259;61405;-85
2023/08/14 01:55:28;;;;;;;8.30;6.00;;;;;;;17.58;100.00;101311.94;106171;1256;74340;-86
2023/08/14 01:58:16;;;;;;;7.20;5.10;;;;;;;17.47;100.00;101316.89;106181;1257;69535;-85
2023/08/14 02:01:06;;;;;;;10.00;5.60;;;;;;;17.39;100.00;101317.98;106217;1256;72665;-85
2023/08/14 02:03:54;;;;;;;9.90;5.50;;;;;;;17.41;100.00;101318.44;106214;1256;60374;-85
2023/08/14 02:06:45;;;;;;;5.80;5.20;;;;;;;17.44;100.00;101321.48;106055;1260;61248;-84
2023/08/14 02:09:33;;;;;;;10.40;5.80;;;;;;;17.43;100.00;101324.59;106036;1259;73821;-85
2023/08/14 02:12:22;;;;;;;7.40;5.60;;;;;;;17.43;100.00;101326.31;106132;1256;68571;-85
2023/08/14 02:15:10;;;;;;;8.10;6.10;;;;;;;17.44;100.00;101334.64;106489;1260;73677;-85
2023/08/14 02:17:58;;;;;;;7.80;5.60;;;;;;;17.45;100.00;101332.73;106193;1261;61818;-85
2023/08/14 02:20:48;;;;;;;6.80;5.20;;;;;;;17.46;100.00;101332.27;106139;1260;60665;-85
2023/08/14 02:23:35;;;;;;;6.60;5.00;;;;;;;17.44;100.00;101336.13;106165;1258;75062;-84
2023/08/14 02:26:23;;;;;;;11.90;6.30;;;;;;;17.40;100.00;101339.17;106178;1256;69538;-84
2023/08/14 02:29:11;;;;;;;7.70;5.80;;;;;;;17.39;100.00;101337.34;106200;1259;72464;-84
2023/08/14 02:32:00;;;;;;;8.40;5.00;;;;;;;17.38;100.00;101340.65;105962;1261;61270;-84
2023/08/14 02:34:49;;;;;;;10.50;6.50;;;;;;;17.30;100.00;101341.13;106157;1261;61635;-84
2023/08/14 02:37:38;;;;;;;7.30;5.90;;;;;;;17.22;100.00;101339.56;106006;1260;303640;-86
2023/08/14 02:40:28;;;;;;;9.80;6.30;;;;;;;17.25;100.00;101341.78;106298;1262;68524;-85
2023/08/14 02:43:16;;;;;;;7.90;5.50;;;;;;;17.22;100.00;101339.05;105970;1258;73604;-86
2023/08/14 02:46:05;;;;;;;7.60;5.90;;;;;;;17.20;100.00;101341.23;105993;1258;60648;-84
2023/08/14 02:48:53;;;;;;;7.10;6.00;;;;;;;17.15;100.00;101341.33;105914;1259;61187;-84
2023/08/14 02:51:42;;;;;;;8.20;5.70;;;;;;;17.13;100.00;101343.00;106154;1258;75041;-85
2023/08/14 02:54:30;;;;;;;7.50;6.20;;;;;;;17.14;100.00;101344.98;106127;1262;68551;-85
2023/08/14 02:57:18;;;;;;;8.30;6.50;;;;;;;17.10;100.00;101345.73;105982;1263;73716;-85
2023/08/14 03:00:07;;;;;;;7.90;6.20;;;;;;;17.12;100.00;101346.41;106005;1257;61197;-84
2023/08/14 03:02:56;;;;;;;7.70;5.60;;;;;;;17.10;100.00;101347.38;106098;1261;61222;-85
2023/08/14 03:05:44;;;;;;;12.20;5.80;;;;;;;17.05;100.00;101350.79;106173;1256;72509;-84
2023/08/14 03:08:32;;;;;;;8.20;6.10;;;;;;;17.07;100.00;101352.29;106335;1262;67631;-84
2023/08/14 03:11:21;;;;;;;9.30;5.90;;;;;;;17.16;100.00;101354.34;106369;1260;71550;-85
2023/08/14 03:14:09;;;;;;;7.60;5.60;;;;;;;17.21;100.00;101355.96;106190;1259;61299;-86
2023/08/14 03:16:57;;;;;;;7.70;5.80;;;;;;;17.29;100.00;101351.14;106076;1259;61263;-84
2023/08/14 03:19:45;;;;;;;9.10;5.80;;;;;;;17.37;100.00;101353.54;106165;1256;75920;-85
2023/08/14 03:22:34;;;;;;;8.60;6.30;;;;;;;17.44;100.00;101359.20;106102;1256;69626;-85
2023/08/14 03:25:22;;;;;;;18.80;7.80;;;;;;;17.47;100.00;101359.13;106128;1259;72526;-85
2023/08/14 03:28:10;;;;;;;9.00;6.00;;;;;;;17.45;100.00;101359.98;105991;1257;61325;-85
2023/08/14 03:30:58;;;;;;;13.00;6.70;;;;;;;17.53;100.00;101363.92;106053;1258;61249;-84
2023/08/14 03:33:47;;;;;;;8.50;5.70;;;;;;;17.57;100.00;101365.75;106265;1261;75584;-86
2023/08/14 03:36:35;;;;;;;10.10;5.90;;;;;;;17.68;100.00;101365.19;106112;1256;69729;-86
2023/08/14 03:39:23;;;;;;;8.30;5.70;;;;;;;17.75;100.00;101369.34;106087;1262;72548;-86
2023/08/14 03:42:11;;;;;;;9.50;5.80;;;;;;;17.85;100.00;101370.27;106224;1256;61378;-86
2023/08/14 03:45:00;;;;;;;8.90;6.10;;;;;;;17.93;100.00;101368.11;106224;1256;61166;-84
2023/08/14 03:47:48;;;;;;;9.30;6.30;;;;;;;18.17;100.00;101367.96;106234;1260;75562;-86
2023/08/14 03:50:36;;;;;;;11.90;6.40;;;;;;;18.37;100.00;101370.31;106067;1256;69281;-87
2023/08/14 03:53:24;;;;;;;11.00;6.50;;;;;;;18.57;100.00;101367.34;106190;1256;72479;-85
2023/08/14 03:56:12;;;;;;;7.90;7.00;;;;;;;18.68;100.00;101371.91;107024;1259;62791;-85
2023/08/14 03:59:01;;;;;;;9.50;6.70;;;;;;;19.10;100.00;101369.55;106162;1259;61241;-85
2023/08/14 04:01:49;;;;;;;8.90;6.80;;;;;;;19.39;100.00;101365.78;106170;1262;74688;-85
2023/08/14 04:04:38;;;;;;;13.20;6.60;;;;;;;19.65;100.00;101368.70;106318;1256;68636;-84
2023/08/14 04:07:26;;;;;;;13.40;6.60;;;;;;;19.73;100.00;101369.73;105997;1256;72484;-84
2023/08/14 04:10:14;;;;;;;10.50;6.70;;;;;;;20.04;100.00;101370.92;106004;1257;61205;-83
2023/08/14 04:13:02;;;;;;;8.30;6.40;;;;;;;20.16;100.00;101365.19;106374;1261;61401;-84
2023/08/14 04:15:51;;;;;;;9.40;6.70;;;;;;;20.25;100.00;101367.33;106160;1260;74389;-83
2023/08/14 04:18:39;;;;;;;10.60;6.30;;;;;;;20.37;100.00;101370.91;105883;1262;69995;-85
2023/08/14 04:21:28;;;;;;;8.10;6.30;;;;;;;20.48;100.00;101370.51;105906;1258;73732;-86
2023/08/14 04:24:15;;;;;;;11.70;6.60;;;;;;;20.69;100.00;101370.53;105976;1256;61263;-85
2023/08/14 04:27:04;;;;;;;8.60;6.50;;;;;;;20.86;100.00;101372.47;106187;1257;61571;-85
2023/08/14 04:29:53;;;;;;;9.30;6.50;;;;;;;21.01;100.00;101374.27;106229;1260;75597;-85
2023/08/14 04:32:41;;;;;;;9.00;6.30;;;;;;;21.26;100.00;101372.83;106501;1257;67420;-86
2023/08/14 04:35:31;;;;;;;7.50;6.20;;;;;;;21.42;100.00;101375.84;105932;1262;73700;-86
2023/08/14 04:38:20;;;;;;;8.90;6.40;;;;;;;21.52;100.00;101373.75;106097;1259;61301;-84
2023/08/14 04:41:10;;;;;;;9.60;6.40;;;;;;;21.66;100.00;101377.52;105962;1260;61308;-87
2023/08/14 04:43:59;;;;;;;8.50;5.80;;;;;;;21.80;100.00;101377.15;106303;1256;75509;-86
2023/08/14 04:46:47;;;;;;;8.30;5.90;;;;;;;22.09;100.00;101375.48;106191;1256;67562;-86
2023/08/14 04:49:50;;;;;;;11.70;6.90;;;;;;;22.28;100.00;101377.86;106291;1256;72527;-86
2023/08/14 04:52:38;;;;;;;15.30;7.00;;;;;;;22.49;100.00;101371.68;106186;1262;62923;-86
2023/08/14 04:55:26;;;;;;;11.60;6.40;;;;;;;22.72;100.00;101374.50;106039;1256;60605;-86
2023/08/14 04:58:15;;;;;;;10.20;6.50;;;;;;;22.94;100.00;101378.44;106272;1262;75667;-86
2023/08/14 05:01:03;;;;;;;11.70;6.50;;;;;;;23.08;100.00;101382.73;106197;1262;67406;-87
2023/08/14 05:03:52;;;;;;;9.30;5.90;;;;;;;23.32;100.00;101380.50;106108;1262;73507;-86
2023/08/14 05:06:40;;;;;;;10.00;6.00;;;;;;;23.48;100.00;101380.42;106120;1256;61811;-86
2023/08/14 05:09:29;;;;;;;10.40;6.50;;;;;;;23.69;100.00;101380.91;106228;1261;61253;-87
2023/08/14 05:12:17;;;;;;;8.90;6.30;;;;;;;23.95;100.00;101377.73;106011;1259;73568;-86
2023/08/14 05:15:06;;;;;;;9.90;5.90;;;;;;;24.20;100.00;101377.49;106102;1262;69023;-86
2023/08/14 05:17:55;;;;;;;10.20;6.00;;;;;;;24.46;100.00;101382.40;106072;1256;73728;-86
2023/08/14 05:20:46;;;;;;;9.30;5.90;;;;;;;24.67;100.00;101384.66;106174;1256;61375;-85
2023/08/14 05:23:34;;;;;;;9.20;5.70;;;;;;;24.84;100.00;101384.66;106057;1256;61170;-86
2023/08/14 05:26:22;;;;;;;9.10;5.50;;;;;;;25.01;100.00;101386.87;106215;1257;75881;-85
2023/08/14 05:29:11;;;;;;;7.30;6.00;;;;;;;25.22;100.00;101390.62;106105;1260;61310;-85
2023/08/14 05:32:00;;;;;;;15.00;6.70;;;;;;;25.36;100.00;101391.70;106191;1262;73066;-85
2023/08/14 05:34:47;;;;;;;10.00;6.60;;;;;;;25.45;100.00;101392.91;106124;1260;61439;-86
2023/08/14 05:37:36;;;;;;;11.00;6.00;;;;;;;25.70;100.00;101395.97;106265;1257;59526;-84
2023/08/14 05:40:27;;;;;;;10.70;6.00;;;;;;;25.89;100.00;101398.25;106162;1257;65942;-85
2023/08/14 05:43:15;;;;;;;8.60;5.90;;;;;;;26.02;100.00;101398.73;106134;1256;61301;-86
2023/08/14 05:46:03;;;;;;;11.40;7.10;;;;;;;26.16;100.00;101405.25;106244;1256;65169;-86
2023/08/14 05:48:52;;;;;;;9.90;5.50;;;;;;;26.32;100.00;101402.90;106062;1256;61280;-85
2023/08/14 05:51:40;;;;;;;10.20;6.00;;;;;;;26.50;100.00;101399.27;106241;1256;61482;-84
2023/08/14 05:54:29;;;;;;;14.20;6.40;;;;;;;26.72;100.00;101401.77;106216;1257;66138;-84
2023/08/14 05:57:17;;;;;;;8.40;5.80;;;;;;;26.94;98.87;101402.55;106225;1256;61194;-84
2023/08/14 06:00:06;;;;;;;9.80;6.10;;;;;;;27.13;96.93;101408.32;106186;1256;65039;-84
2023/08/14 06:03:00;;;;;;;6.60;5.40;;;;;;;27.32;95.07;101411.05;106156;1258;61237;-84
2023/08/14 06:05:48;;;;;;;10.50;6.10;;;;;;;27.52;91.12;101412.70;106108;1262;61224;-85
2023/08/14 06:08:36;;;;;;;9.00;5.30;;;;;;;27.67;86.99;101413.95;106146;1257;66093;-85
2023/08/14 06:11:24;;;;;;;9.00;5.50;;;;;;;27.65;85.24;101411.66;106089;1262;61297;-85
2023/08/14 06:14:13;;;;;;;9.60;5.80;;;;;;;27.70;85.31;101414.98;106297;1262;63381;-84
2023/08/14 06:17:01;;;;;;;8.60;5.60;;;;;;;27.78;84.96;101414.96;105857;1262;61261;-85
2023/08/14 06:19:50;;;;;;;10.40;5.90;;;;;;;27.96;85.45;101414.24;106101;1260;61591;-86
2023/08/14 06:22:43;;;;;;;8.60;6.00;;;;;;;28.13;84.52;101413.64;106270;1260;67105;-88
2023/08/14 06:25:32;;;;;;;7.40;5.80;;;;;;;28.33;84.02;101414.52;106098;1260;61347;-86
2023/08/14 06:28:21;;;;;;;9.20;5.40;;;;;;;28.53;83.18;101416.45;106066;1256;64953;-86
2023/08/14 06:31:23;;;;;;;12.50;5.90;;;;;;;28.75;81.78;101423.77;105998;1260;61279;-86
2023/08/14 06:34:12;;;;;;;9.00;5.80;;;;;;;28.88;81.90;101418.00;105996;1256;61257;-84
2023/08/14 06:37:00;;;;;;;11.40;6.70;;;;;;;29.07;81.91;101421.14;106170;1260;64653;-84
2023/08/14 06:39:49;;;;;;;14.10;6.20;;;;;;;29.25;79.75;101424.02;106150;1260;61374;-85
2023/08/14 06:42:37;;;;;;;12.00;5.40;;;;;;;29.36;78.22;101424.95;105941;1262;65096;-84
2023/08/14 06:45:29;;;;;;;11.00;5.90;;;;;;;29.50;75.69;101426.55;106246;1259;61259;-87
2023/08/14 06:48:17;;;;;;;8.20;6.10;;;;;;;29.59;73.47;101425.45;106129;1257;61296;-87
2023/08/14 06:51:07;;;;;;;9.10;4.70;;;;;;;29.70;71.06;101429.20;106459;1262;67015;-86
2023/08/14 06:53:54;;;;;;;6.30;5.30;;;;;;;29.87;69.94;101436.61;106275;1260;61368;-85
2023/08/14 06:56:43;;;;;;;8.40;5.50;;;;;;;30.00;70.74;101435.44;106235;1260;63029;-87
2023/08/14 06:59:31;;;;;;;10.10;5.50;;;;;;;30.19;69.68;101439.38;106102;1258;61327;-87
2023/08/14 07:02:19;;;;;;;7.00;5.30;;;;;;;30.46;69.87;101445.40;106273;1257;61274;-88
2023/08/14 07:05:09;;;;;;;6.20;4.90;;;;;;;30.72;68.37;101445.48;105985;1258;65972;-88
2023/08/14 07:07:58;;;;;;;9.80;5.50;;;;;;;30.91;68.72;101445.93;105954;1262;61205;-87
2023/08/14 07:10:47;;;;;;;9.00;5.30;;;;;;;31.10;68.40;101447.01;106179;1257;64102;-87
2023/08/14 07:13:35;;;;;;;9.80;5.70;;;;;;;31.33;64.43;101441.52;106095;1262;62001;-88
2023/08/14 07:16:23;;;;;;;10.10;6.00;;;;;;;31.28;60.80;101447.88;106323;1260;61311;-87
2023/08/14 07:19:11;;;;;;;10.70;5.50;;;;;;;31.28;59.63;101443.69;106281;1258;64688;-87
2023/08/14 07:21:59;;;;;;;9.00;5.30;;;;;;;31.27;60.08;101443.44;106072;1256;61441;-88
2023/08/14 07:24:47;;;;;;;7.60;5.10;;;;;;;31.33;61.28;101441.60;106249;1260;62734;-86
2023/08/14 07:27:36;;;;;;;6.70;5.20;;;;;;;31.45;59.29;101442.80;106262;1257;61248;-89
2023/08/14 07:30:24;;;;;;;7.80;4.90;;;;;;;31.69;61.36;101442.11;106059;1257;61366;-88
2023/08/14 07:33:15;;;;;;;9.10;4.30;;;;;;;31.82;55.65;101443.11;106073;1256;67252;-87
2023/08/14 07:36:03;;;;;;;9.50;5.10;;;;;;;31.96;52.95;101439.34;106221;1261;61311;-88
2023/08/14 07:38:51;;;;;;;7.60;4.90;;;;;;;32.16;54.09;101434.99;106045;1263;62665;-88
2023/08/14 07:41:39;;;;;;;5.80;4.30;;;;;;;32.38;52.86;101436.98;105927;1262;61237;-87
2023/08/14 07:44:27;;;;;;;8.10;4.20;;;;;;;32.45;50.23;101439.64;106320;1257;61260;-88
2023/08/14 07:47:15;;;;;;;5.90;4.20;;;;;;;32.36;47.92;101439.90;106193;1257;65851;-87
2023/08/14 07:50:04;;;;;;;5.90;3.80;;;;;;;32.39;46.66;101444.59;106361;1260;61359;-87
2023/08/14 07:52:52;;;;;;;5.50;3.60;;;;;;;32.47;45.32;101445.39;106145;1262;62801;-89
2023/08/14 07:55:43;;;;;;;5.50;4.10;;;;;;;32.58;44.68;101446.92;106117;1262;61263;-88
2023/08/14 07:58:31;;;;;;;7.50;3.80;;;;;;;32.75;43.70;101448.98;106157;1258;61298;-90
2023/08/14 08:01:19;;;;;;;6.40;4.10;;;;;;;32.86;43.31;101445.88;106131;1260;67528;-87
2023/08/14 08:04:08;;;;;;;4.70;3.70;;;;;;;32.85;42.69;101445.40;106214;1262;61287;-88
2023/08/14 08:06:56;;;;;;;5.70;3.80;;;;;;;32.94;42.91;101441.16;106295;1261;65791;-87
2023/08/14 08:09:45;;;;;;;5.00;2.90;;;;;;;33.15;42.02;101442.48;106331;1262;61252;-86
2023/08/14 08:12:33;;;;;;;6.80;3.60;;;;;;;33.24;40.27;101442.20;106039;1262;61339;-89
2023/08/14 08:15:22;;;;;;;6.00;3.50;;;;;;;33.25;41.39;101441.48;106172;1260;67375;-87
2023/08/14 08:18:10;;;;;;;8.70;3.00;;;;;;;33.32;42.12;101442.64;106136;1257;61438;-88
2023/08/14 08:21:01;;;;;;;6.10;2.40;;;;;;;33.56;40.46;101442.92;105962;1257;64138;-88
2023/08/14 08:23:49;;;;;;;4.30;2.60;;;;;;;33.73;37.40;101445.50;106199;1257;61334;-86
2023/08/14 08:26:37;;;;;;;7.20;3.40;;;;;;;33.74;37.57;101443.05;106123;1260;61237;-88
2023/08/14 08:29:25;;;;;;;4.60;2.90;;;;;;;33.86;37.47;101445.08;106329;1262;67886;-89
2023/08/14 08:32:13;;;;;;;4.50;3.30;;;;;;;33.83;37.56;101447.05;106048;1261;61461;-88
2023/08/14 08:35:01;;;;;;;7.30;3.30;;;;;;;33.69;39.15;101442.87;106126;1261;63807;-90
2023/08/14 08:37:50;;;;;;;8.00;3.40;;;;;;;33.63;39.29;101440.70;106271;1257;61264;-87
2023/08/14 08:40:38;;;;;;;8.40;3.30;;;;;;;33.72;39.00;101442.75;106400;1260;61127;-89
2023/08/14 08:43:27;;;;;;;4.20;2.60;;;;;;;33.84;37.50;101441.52;106165;1262;65662;-87
2023/08/14 08:46:15;;;;;;;3.80;2.90;;;;;;;33.96;36.47;101444.44;106083;1261;61208;-89
2023/08/14 08:49:04;;;;;;;3.80;3.10;;;;;;;34.03;35.21;101445.18;106292;1260;63890;-89
2023/08/14 08:51:52;;;;;;;3.30;2.50;;;;;;;33.94;35.59;101444.20;106221;1261;61297;-87
2023/08/14 08:54:40;;;;;;;8.90;3.00;;;;;;;34.03;36.42;101443.66;106041;1262;61224;-88
2023/08/14 08:57:29;;;;;;;4.10;2.90;;;;;;;34.24;35.76;101444.55;106167;1263;67431;-88
2023/08/14 09:00:17;;;;;;;5.90;2.70;;;;;;;34.26;34.11;101446.08;106295;1267;59987;-87
2023/08/14 09:03:05;;;;;;;3.20;2.40;;;;;;;34.25;34.47;101445.98;106261;1260;63969;-87
2023/08/14 09:05:54;;;;;;;4.00;2.60;;;;;;;34.35;34.95;101443.15;106146;1263;61336;-87
2023/08/14 09:08:41;;;;;;;6.40;2.80;;;;;;;34.46;35.92;101441.98;106121;1257;61305;-88
2023/08/14 09:11:30;;;;;;;3.30;2.40;;;;;;;34.47;34.68;101440.11;106130;1262;66998;-88
2023/08/14 09:14:18;;;;;;;3.40;2.40;;;;;;;34.49;34.19;101442.27;106013;1264;61312;-89
2023/08/14 09:17:06;;;;;;;3.90;2.40;;;;;;;34.54;34.83;101441.50;106122;1257;63867;-87
2023/08/14 09:19:54;;;;;;;3.40;2.80;;;;;;;34.57;35.66;101437.98;106458;1257;61337;-87
2023/08/14 09:22:42;;;;;;;4.50;2.80;;;;;;;34.54;38.69;101440.92;106299;1261;61215;-86
2023/08/14 09:25:30;;;;;;;3.90;2.60;;;;;;;34.50;39.61;101440.48;106264;1255;65846;-88
2023/08/14 09:28:19;;;;;;;3.60;2.70;;;;;;;34.51;38.42;101439.26;106272;1262;61378;-88
2023/08/14 09:31:08;;;;;;;3.80;2.90;;;;;;;34.48;36.83;101439.67;106006;1258;65206;-86
2023/08/14 09:49:57;;;;;;;4.30;2.40;;;;;;;34.88;35.66;101440.17;106113;1260;61309;-88
2023/08/14 09:52:46;;;;;;;4.40;2.90;;;;;;;34.77;34.79;101437.21;105984;1257;61292;-88
2023/08/14 09:55:34;;;;;;;3.10;2.30;;;;;;;34.75;34.14;101437.41;106254;1257;65731;-89
2023/08/14 09:58:22;;;;;;;5.00;3.00;;;;;;;34.79;34.93;101435.82;106139;1257;61370;-89
2023/08/14 10:01:14;;;;;;;3.00;2.40;;;;;;;34.73;36.56;101433.78;106003;1261;63849;-88
2023/08/14 10:04:03;;;;;;;2.90;2.20;;;;;;;34.63;37.29;101433.23;106218;1263;61346;-87
2023/08/14 10:06:51;;;;;;;2.90;2.30;;;;;;;34.61;37.55;101431.70;106262;1264;61242;-86
2023/08/14 10:09:41;;;;;;;4.20;2.80;;;;;;;34.51;36.45;101426.20;106144;1257;66337;-87
2023/08/14 10:12:33;;;;;;;6.40;2.40;;;;;;;34.41;36.99;101425.27;106184;1262;61290;-88
2023/08/14 10:15:24;;;;;;;4.60;2.70;;;;;;;34.16;38.97;101419.83;106313;1256;63759;-88
2023/08/14 10:18:13;;;;;;;2.90;2.50;;;;;;;33.90;39.29;101420.83;106067;1261;61245;-87
2023/08/14 10:21:01;;;;;;;4.40;2.70;;;;;;;33.76;40.85;101421.10;106143;1261;61298;-88
2023/08/14 10:23:49;;;;;;;6.70;2.50;;;;;;;33.71;41.05;101423.58;105963;1260;67018;-89
2023/08/14 10:26:38;;;;;;;4.60;2.60;;;;;;;33.51;42.22;101422.88;106140;1257;61301;-87
2023/08/14 10:29:26;;;;;;;2.70;2.50;;;;;;;33.40;44.49;101427.30;106199;1257;62800;-87
2023/08/14 10:32:14;;;;;;;5.60;2.80;;;;;;;33.35;44.86;101425.79;106279;1259;61325;-88
2023/08/14 10:35:03;;;;;;;4.60;2.50;;;;;;;33.37;46.41;101424.73;106148;1256;61339;-88
2023/08/14 10:37:52;;;;;;;3.80;2.70;;;;;;;33.39;45.95;101430.15;106017;1257;66784;-87
2023/08/14 10:41:05;;;;;;;4.20;2.70;;;;;;;33.32;44.49;101427.75;105993;1257;61368;-86
2023/08/14 10:43:56;;;;;;;6.10;2.70;;;;;;;33.33;45.68;101426.69;106194;1257;65120;-87
2023/08/14 10:46:44;;;;;;;2.80;2.10;;;;;;;33.42;45.01;101429.80;105948;1257;61535;-87
2023/08/14 10:49:45;;;;;;;6.10;2.70;;;;;;;33.41;43.54;101425.36;106303;1257;61171;-88
2023/08/14 10:52:34;;;;;;;4.30;2.40;;;;;;;33.45;45.29;101421.03;106087;1261;66888;-90
2023/08/14 10:55:39;;;;;;;2.80;2.20;;;;;;;33.51;44.31;101413.96;106218;1261;61309;-89
2023/08/14 10:58:28;;;;;;;2.60;2.40;;;;;;;33.50;43.92;101416.23;106332;1257;64194;-89
2023/08/14 11:01:16;;;;;;;2.90;2.50;;;;;;;33.52;43.88;101411.86;106432;1258;61826;-88
2023/08/14 11:04:05;;;;;;;2.60;2.20;;;;;;;33.58;44.20;101404.98;106237;1257;61342;-88
2023/08/14 11:07:08;;;;;;;3.30;2.90;;;;;;;33.63;43.83;101407.11;106166;1257;65878;-89
2023/08/14 11:09:57;;;;;;;4.90;2.70;;;;;;;33.71;42.60;101404.22;106109;1260;61861;-87
2023/08/14 11:12:47;;;;;;;2.50;2.30;;;;;;;33.78;42.59;101402.54;106119;1262;63946;-88
2023/08/14 11:15:36;;;;;;;5.70;2.80;;;;;;;33.77;44.02;101398.34;106091;1257;61336;-88
2023/08/14 11:18:24;;;;;;;3.40;2.40;;;;;;;33.71;44.59;101397.33;106340;1260;61296;-87
2023/08/14 11:21:13;;;;;;;4.10;2.70;;;;;;;33.65;45.51;101395.69;106344;1260;65850;-88
2023/08/14 11:24:19;;;;;;;5.00;2.50;;;;;;;33.67;44.58;101395.75;106196;1257;61194;-87
2023/08/14 11:27:07;;;;;;;3.00;2.60;;;;;;;33.71;44.45;101391.51;106237;1257;64631;-87
2023/08/14 11:29:55;;;;;;;5.50;2.30;;;;;;;33.78;45.44;101392.10;106061;1258;61315;-89
2023/08/14 11:32:50;;;;;;;4.40;2.40;;;;;;;33.91;47.01;101391.50;105870;1257;61269;-88
2023/08/14 11:35:38;;;;;;;3.30;2.60;;;;;;;34.15;44.11;101388.16;106098;1257;68130;-89
2023/08/14 11:38:26;;;;;;;2.70;2.30;;;;;;;34.35;41.32;101387.22;106271;1261;61346;-89
2023/08/14 11:41:14;;;;;;;3.30;2.30;;;;;;;34.52;42.64;101387.45;106117;1257;66128;-90
2023/08/14 11:44:03;;;;;;;4.60;2.60;;;;;;;34.63;41.58;101388.24;106043;1256;61226;-87
2023/08/14 11:46:51;;;;;;;4.30;2.90;;;;;;;34.76;41.43;101385.52;106133;1258;61110;-87
2023/08/14 11:49:40;;;;;;;3.40;2.30;;;;;;;34.88;41.34;101382.84;106156;1257;65905;-88
2023/08/14 11:52:28;;;;;;;2.50;2.20;;;;;;;34.93;41.03;101384.30;106048;1257;61227;-90
2023/08/14 11:55:17;;;;;;;4.80;2.40;;;;;;;34.95;41.47;101384.92;106022;1261;65122;-88
2023/08/14 11:58:05;;;;;;;4.10;2.60;;;;;;;35.11;41.31;101384.23;106173;1258;61358;-91
2023/08/14 12:00:53;;;;;;;3.00;2.60;;;;;;;35.36;41.33;101380.23;106074;1258;62724;-89
2023/08/14 12:03:42;;;;;;;3.70;2.70;;;;;;;35.56;40.55;101379.70;106050;1261;66996;-85
2023/08/14 12:06:30;;;;;;;2.30;2.10;;;;;;;35.68;39.79;101377.08;106039;1257;61299;-87
2023/08/14 12:09:18;;;;;;;3.40;2.80;;;;;;;35.74;38.41;101374.81;105975;1260;65047;-88
2023/08/14 12:12:07;;;;;;;3.30;2.20;;;;;;;35.70;38.34;101376.40;106389;1260;61417;-89
2023/08/14 12:14:55;;;;;;;4.20;2.10;;;;;;;35.66;38.59;101372.81;106176;1257;61276;-87
2023/08/14 12:17:43;;;;;;;4.30;2.70;;;;;;;35.70;38.12;101374.38;106257;1257;67062;-86
2023/08/14 12:20:33;;;;;;;3.60;2.60;;;;;;;35.67;38.68;101375.31;106079;1256;61423;-88
2023/08/14 12:23:22;;;;;;;3.80;2.60;;;;;;;35.80;38.42;101374.05;105914;1258;65118;-87
2023/08/14 12:26:12;;;;;;;5.10;2.50;;;;;;;35.97;38.16;101373.05;106202;1261;61374;-88
2023/08/14 12:29:01;;;;;;;3.60;2.10;;;;;;;35.99;37.94;101373.08;105906;1256;61365;-84
2023/08/14 12:31:49;;;;;;;4.60;2.40;;;;;;;35.80;38.11;101374.21;105932;1256;65745;-84
2023/08/14 12:34:38;;;;;;;4.80;2.30;;;;;;;35.45;39.20;101376.21;106191;1256;61663;-85
2023/08/14 12:37:26;;;;;;;2.60;2.30;;;;;;;35.17;40.56;101372.24;106220;1258;65530;-90
2023/08/14 12:40:14;;;;;;;5.40;2.40;;;;;;;35.04;41.03;101370.27;106043;1257;61257;-85
2023/08/14 12:43:03;;;;;;;6.20;2.60;;;;;;;34.94;42.05;101365.31;106385;1257;60309;-90
2023/08/14 12:45:51;;;;;;;3.20;2.20;;;;;;;34.85;42.37;101363.15;106210;1260;67139;-90
2023/08/14 12:48:39;;;;;;;3.90;2.60;;;;;;;34.88;41.90;101362.08;106254;1258;61362;-87
2023/08/14 12:51:27;;;;;;;2.70;2.00;;;;;;;34.92;41.31;101362.16;105979;1258;64054;-85
2023/08/14 12:54:15;;;;;;;3.40;2.40;;;;;;;34.96;41.15;101357.56;106118;1257;61184;-85
2023/08/14 12:57:04;;;;;;;3.80;2.70;;;;;;;35.02;41.75;101354.48;106139;1257;61301;-85
2023/08/14 12:59:53;;;;;;;4.70;2.60;;;;;;;35.30;40.53;101352.23;106290;1257;65922;-93
2023/08/14 13:02:46;;;;;;;4.60;2.20;;;;;;;35.79;38.51;101345.22;106322;1257;61250;-90
2023/08/14 13:05:34;;;;;;;5.30;2.20;;;;;;;36.27;38.53;101344.45;106151;1258;64402;-88
2023/08/14 13:08:28;;;;;;;3.60;2.40;;;;;;;36.64;37.49;101346.34;105907;1256;61277;-89
2023/08/14 13:11:18;;;;;;;3.60;2.20;;;;;;;37.04;35.74;101339.55;106399;1257;61359;-86
2023/08/14 13:14:06;;;;;;;3.30;2.20;;;;;;;37.35;35.62;101338.90;105894;1257;66095;-85
2023/08/14 13:16:55;;;;;;;3.70;2.20;;;;;;;37.64;34.87;101339.79;106186;1256;61176;-86
2023/08/14 13:19:43;;;;;;;2.80;2.00;;;;;;;37.94;34.35;101339.83;105942;1256;62795;-86
2023/08/14 13:22:31;;;;;;;3.70;2.30;;;;;;;38.22;33.19;101336.23;106137;1256;61127;-88
2023/08/14 13:25:19;;;;;;;2.60;1.90;;;;;;;38.34;32.51;101340.93;106199;1256;61183;-89
2023/08/14 13:28:07;;;;;;;3.70;2.30;;;;;;;38.48;32.76;101337.39;105925;1257;66117;-86
2023/08/14 13:30:55;;;;;;;3.40;2.00;;;;;;;38.56;31.41;101334.70;105920;1256;61384;-86
2023/08/14 13:33:43;;;;;;;2.70;2.00;;;;;;;38.71;31.52;101333.83;106190;1257;65205;-86
2023/08/14 13:36:32;;;;;;;4.30;1.90;;;;;;;38.88;31.24;101336.44;105993;1256;62060;-90
2023/08/14 13:39:20;;;;;;;3.90;1.90;;;;;;;38.83;30.86;101336.52;106234;1260;61335;-87
2023/08/14 13:42:08;;;;;;;2.10;1.80;;;;;;;38.85;30.75;101331.80;106037;1257;64468;-89
2023/08/14 13:44:56;;;;;;;2.80;2.10;;;;;;;38.99;30.62;101327.06;106329;1256;61319;-90
2023/08/14 13:47:59;;;;;;;3.10;2.00;;;;;;;39.16;30.62;101325.05;105933;1256;65091;-84
2023/08/14 13:50:48;;;;;;;5.10;1.80;;;;;;;39.34;30.19;101319.98;106357;1257;61221;-86
2023/08/14 13:53:36;;;;;;;4.70;2.20;;;;;;;39.42;29.59;101320.40;106230;1258;61337;-85
2023/08/14 13:56:24;;;;;;;2.90;2.10;;;;;;;39.59;29.39;101322.35;106066;1257;66785;-86
2023/08/14 13:59:12;;;;;;;2.20;1.70;;;;;;;39.63;28.90;101318.63;106020;1257;61833;-89
2023/08/14 14:02:00;;;;;;;2.80;1.60;;;;;;;39.49;28.78;101320.54;106201;1260;62806;-87
2023/08/14 14:04:52;;;;;;;5.00;2.10;;;;;;;39.27;28.67;101314.42;106099;1257;61325;-89
2023/08/14 14:07:41;;;;;;;2.80;2.00;;;;;;;39.13;29.21;101311.60;106136;1257;61280;-88
2023/08/14 14:10:38;;;;;;;3.60;1.80;;;;;;;39.44;28.49;101311.90;106057;1260;65920;-88
2023/08/14 14:13:26;;;;;;;3.90;1.90;;;;;;;39.78;27.80;101309.48;106278;1256;61388;-84
2023/08/14 14:16:14;;;;;;;3.00;1.50;;;;;;;39.71;27.45;101310.98;106198;1256;63741;-86
2023/08/14 14:19:03;;;;;;;3.20;1.80;;;;;;;39.60;27.50;101309.58;106147;1258;61395;-88
2023/08/14 14:21:52;;;;;;;2.50;1.80;;;;;;;39.53;27.67;101312.77;106169;1260;61354;-90
2023/08/14 14:24:40;;;;;;;3.00;1.70;;;;;;;39.37;27.39;101309.52;105909;1257;67119;-86
2023/08/14 14:27:29;;;;;;;4.30;1.40;;;;;;;39.10;27.68;101305.80;106119;1256;61548;-85
2023/08/14 14:30:17;;;;;;;2.20;1.40;;;;;;;38.73;27.25;101304.03;105991;1260;65088;-86
2023/08/14 14:33:05;;;;;;;3.50;1.80;;;;;;;38.22;26.91;101304.84;106115;1256;61299;-87
2023/08/14 14:35:54;;;;;;;4.20;1.60;;;;;;;37.76;28.04;101301.02;106281;1256;59341;-86
2023/08/14 14:38:42;;;;;;;3.50;1.40;;;;;;;37.41;28.26;101303.44;106090;1256;66445;-85
2023/08/14 14:41:30;;;;;;;1.40;1.10;;;;;;;36.95;28.93;101306.05;105973;1257;61258;-86
2023/08/14 14:44:18;;;;;;;3.20;1.60;;;;;;;36.43;28.79;101305.75;106140;1257;62869;-87
2023/08/14 14:47:06;;;;;;;2.50;1.70;;;;;;;36.08;29.38;101302.30;106377;1256;61359;-85
2023/08/14 14:49:54;;;;;;;3.40;1.50;;;;;;;35.73;30.22;101307.55;106030;1256;61317;-89
2023/08/14 14:52:42;;;;;;;2.00;1.70;;;;;;;35.41;31.67;101309.30;105937;1260;65862;-85
2023/08/14 14:55:31;;;;;;;2.40;2.00;;;;;;;35.22;32.31;101309.84;105997;1256;61282;-84
2023/08/14 14:58:19;;;;;;;2.40;2.10;;;;;;;35.05;33.05;101309.09;106163;1256;63771;-87